sensor_id;sensor_type;location;lat;lon;timestamp;P1;durP1;ratioP1;P2;durP2;ratioP2
8399;SDS011;4237;47.030;15.396;2023-09-19T00:00:22;14.13;;;3.63;;
8399;SDS011;4237;47.030;15.396;2023-09-19T00:02:57;9.30;;;3.50;;
8399;SDS011;4237;47.030;15.396;2023-09-19T00:05:28;5.63;;;2.93;;
8399;SDS011;4237;47.030;15.396;2023-09-19T00:07:57;7.33;;;3.53;;
8399;SDS011;4237;47.030;15.396;2023-09-19T00:10:28;9.07;;;4.10;;
8399;SDS011;4237;47.030;15.396;2023-09-19T00:12:58;7.27;;;4.60;;
8399;SDS011;4237;47.030;15.396;2023-09-19T00:15:27;7.77;;;3.47;;
8399;SDS011;4237;47.030;15.396;2023-09-19T00:17:57;11.80;;;3.13;;
8399;SDS011;4237;47.030;15.396;2023-09-19T00:20:26;6.63;;;3.07;;
8399;SDS011;4237;47.030;15.396;2023-09-19T00:22:56;7.57;;;3.60;;
8399;SDS011;4237;47.030;15.396;2023-09-19T00:25:25;10.17;;;3.07;;
8399;SDS011;4237;47.030;15.396;2023-09-19T00:27:55;8.33;;;3.50;;
8399;SDS011;4237;47.030;15.396;2023-09-19T00:30:23;8.73;;;3.00;;
8399;SDS011;4237;47.030;15.396;2023-09-19T00:32:51;10.83;;;3.40;;
8399;SDS011;4237;47.030;15.396;2023-09-19T00:35:20;4.93;;;3.07;;
8399;SDS011;4237;47.030;15.396;2023-09-19T00:37:51;7.50;;;2.60;;
8399;SDS011;4237;47.030;15.396;2023-09-19T00:40:19;4.80;;;2.40;;
8399;SDS011;4237;47.030;15.396;2023-09-19T00:42:48;6.80;;;2.57;;
8399;SDS011;4237;47.030;15.396;2023-09-19T00:45:17;3.80;;;2.20;;
8399;SDS011;4237;47.030;15.396;2023-09-19T00:47:53;2.60;;;2.03;;
8399;SDS011;4237;47.030;15.396;2023-09-19T00:50:18;5.00;;;2.83;;
8399;SDS011;4237;47.030;15.396;2023-09-19T00:52:48;4.73;;;1.90;;
8399;SDS011;4237;47.030;15.396;2023-09-19T00:55:17;3.60;;;2.00;;
8399;SDS011;4237;47.030;15.396;2023-09-19T00:57:48;3.57;;;1.90;;
8399;SDS011;4237;47.030;15.396;2023-09-19T01:00:17;3.30;;;1.60;;
8399;SDS011;4237;47.030;15.396;2023-09-19T01:02:47;3.47;;;2.13;;
8399;SDS011;4237;47.030;15.396;2023-09-19T01:05:15;3.53;;;1.77;;
8399;SDS011;4237;47.030;15.396;2023-09-19T01:07:44;1.80;;;1.57;;
8399;SDS011;4237;47.030;15.396;2023-09-19T01:10:13;4.13;;;1.50;;
8399;SDS011;4237;47.030;15.396;2023-09-19T01:12:53;4.17;;;1.50;;
8399;SDS011;4237;47.030;15.396;2023-09-19T01:17:52;3.23;;;1.60;;
8399;SDS011;4237;47.030;15.396;2023-09-19T01:22:48;1.40;;;1.30;;
8399;SDS011;4237;47.030;15.396;2023-09-19T01:25:50;2.50;;;1.30;;
8399;SDS011;4237;47.030;15.396;2023-09-19T01:28:04;2.77;;;1.10;;
8399;SDS011;4237;47.030;15.396;2023-09-19T01:30:26;2.43;;;0.97;;
8399;SDS011;4237;47.030;15.396;2023-09-19T01:32:56;3.10;;;1.50;;
8399;SDS011;4237;47.030;15.396;2023-09-19T01:35:24;1.87;;;1.10;;
8399;SDS011;4237;47.030;15.396;2023-09-19T01:37:53;1.97;;;1.37;;
8399;SDS011;4237;47.030;15.396;2023-09-19T01:40:21;3.80;;;1.40;;
8399;SDS011;4237;47.030;15.396;2023-09-19T01:48:21;1.83;;;1.10;;
8399;SDS011;4237;47.030;15.396;2023-09-19T01:50:52;4.47;;;1.30;;
8399;SDS011;4237;47.030;15.396;2023-09-19T01:53:26;3.73;;;1.40;;
8399;SDS011;4237;47.030;15.396;2023-09-19T01:55:49;3.60;;;0.90;;
8399;SDS011;4237;47.030;15.396;2023-09-19T01:58:27;1.23;;;1.13;;
8399;SDS011;4237;47.030;15.396;2023-09-19T02:00:51;3.37;;;1.17;;
8399;SDS011;4237;47.030;15.396;2023-09-19T02:03:20;2.27;;;1.10;;
8399;SDS011;4237;47.030;15.396;2023-09-19T02:05:50;2.40;;;1.10;;
8399;SDS011;4237;47.030;15.396;2023-09-19T02:08:21;2.17;;;1.00;;
8399;SDS011;4237;47.030;15.396;2023-09-19T02:10:51;1.37;;;1.20;;
8399;SDS011;4237;47.030;15.396;2023-09-19T02:13:20;2.83;;;0.90;;
8399;SDS011;4237;47.030;15.396;2023-09-19T02:15:49;3.13;;;1.07;;
8399;SDS011;4237;47.030;15.396;2023-09-19T02:18:17;0.90;;;0.80;;
8399;SDS011;4237;47.030;15.396;2023-09-19T02:20:45;2.67;;;0.93;;
8399;SDS011;4237;47.030;15.396;2023-09-19T02:23:14;1.87;;;0.80;;
8399;SDS011;4237;47.030;15.396;2023-09-19T02:25:51;0.83;;;0.77;;
8399;SDS011;4237;47.030;15.396;2023-09-19T02:28:14;1.40;;;1.10;;
8399;SDS011;4237;47.030;15.396;2023-09-19T02:30:43;1.30;;;1.20;;
8399;SDS011;4237;47.030;15.396;2023-09-19T02:33:11;2.53;;;1.10;;
8399;SDS011;4237;47.030;15.396;2023-09-19T02:35:40;1.37;;;1.00;;
8399;SDS011;4237;47.030;15.396;2023-09-19T02:38:10;1.00;;;1.00;;
8399;SDS011;4237;47.030;15.396;2023-09-19T02:40:39;4.13;;;1.20;;
8399;SDS011;4237;47.030;15.396;2023-09-19T02:43:09;3.20;;;1.20;;
8399;SDS011;4237;47.030;15.396;2023-09-19T02:45:37;2.00;;;0.90;;
8399;SDS011;4237;47.030;15.396;2023-09-19T02:48:06;1.17;;;0.80;;
8399;SDS011;4237;47.030;15.396;2023-09-19T02:50:34;3.23;;;1.27;;
8399;SDS011;4237;47.030;15.396;2023-09-19T02:53:02;2.37;;;0.83;;
8399;SDS011;4237;47.030;15.396;2023-09-19T02:55:32;4.03;;;0.97;;
8399;SDS011;4237;47.030;15.396;2023-09-19T02:58:01;0.83;;;0.80;;
8399;SDS011;4237;47.030;15.396;2023-09-19T03:00:29;2.47;;;1.13;;
8399;SDS011;4237;47.030;15.396;2023-09-19T03:02:58;4.93;;;0.90;;
8399;SDS011;4237;47.030;15.396;2023-09-19T03:05:27;1.20;;;1.07;;
8399;SDS011;4237;47.030;15.396;2023-09-19T03:07:57;2.13;;;0.90;;
8399;SDS011;4237;47.030;15.396;2023-09-19T03:10:27;1.83;;;1.00;;
8399;SDS011;4237;47.030;15.396;2023-09-19T03:12:56;2.70;;;1.00;;
8399;SDS011;4237;47.030;15.396;2023-09-19T03:15:26;1.87;;;0.80;;
8399;SDS011;4237;47.030;15.396;2023-09-19T03:17:55;3.03;;;1.10;;
8399;SDS011;4237;47.030;15.396;2023-09-19T03:20:23;5.47;;;1.10;;
8399;SDS011;4237;47.030;15.396;2023-09-19T03:22:52;4.40;;;0.90;;
8399;SDS011;4237;47.030;15.396;2023-09-19T03:25:20;3.07;;;1.17;;
8399;SDS011;4237;47.030;15.396;2023-09-19T03:27:50;1.07;;;0.87;;
8399;SDS011;4237;47.030;15.396;2023-09-19T03:30:19;2.47;;;1.93;;
8399;SDS011;4237;47.030;15.396;2023-09-19T03:32:48;2.47;;;1.00;;
8399;SDS011;4237;47.030;15.396;2023-09-19T03:35:17;6.23;;;0.97;;
8399;SDS011;4237;47.030;15.396;2023-09-19T03:37:45;2.23;;;1.03;;
8399;SDS011;4237;47.030;15.396;2023-09-19T03:40:13;0.90;;;0.90;;
8399;SDS011;4237;47.030;15.396;2023-09-19T03:42:43;2.57;;;1.47;;
8399;SDS011;4237;47.030;15.396;2023-09-19T03:45:11;4.90;;;1.60;;
8399;SDS011;4237;47.030;15.396;2023-09-19T03:47:43;2.33;;;1.27;;
8399;SDS011;4237;47.030;15.396;2023-09-19T03:50:13;2.03;;;1.13;;
8399;SDS011;4237;47.030;15.396;2023-09-19T03:52:44;3.40;;;1.17;;
8399;SDS011;4237;47.030;15.396;2023-09-19T03:55:12;2.80;;;1.23;;
8399;SDS011;4237;47.030;15.396;2023-09-19T03:57:41;2.87;;;1.70;;
8399;SDS011;4237;47.030;15.396;2023-09-19T04:00:09;1.60;;;1.00;;
8399;SDS011;4237;47.030;15.396;2023-09-19T04:02:39;2.83;;;1.30;;
8399;SDS011;4237;47.030;15.396;2023-09-19T04:05:08;3.57;;;1.40;;
8399;SDS011;4237;47.030;15.396;2023-09-19T04:07:38;1.40;;;0.97;;
8399;SDS011;4237;47.030;15.396;2023-09-19T04:10:06;1.50;;;1.30;;
8399;SDS011;4237;47.030;15.396;2023-09-19T04:12:36;2.83;;;1.53;;
8399;SDS011;4237;47.030;15.396;2023-09-19T04:15:04;2.17;;;1.40;;
8399;SDS011;4237;47.030;15.396;2023-09-19T04:17:33;4.97;;;1.67;;
8399;SDS011;4237;47.030;15.396;2023-09-19T04:20:01;2.87;;;1.57;;
8399;SDS011;4237;47.030;15.396;2023-09-19T04:22:31;3.50;;;1.30;;
8399;SDS011;4237;47.030;15.396;2023-09-19T04:24:59;1.80;;;1.13;;
8399;SDS011;4237;47.030;15.396;2023-09-19T04:27:27;1.20;;;1.10;;
8399;SDS011;4237;47.030;15.396;2023-09-19T04:29:56;2.87;;;1.43;;
8399;SDS011;4237;47.030;15.396;2023-09-19T04:32:28;2.40;;;1.10;;
8399;SDS011;4237;47.030;15.396;2023-09-19T04:34:58;2.43;;;1.17;;
8399;SDS011;4237;47.030;15.396;2023-09-19T04:37:28;2.00;;;1.20;;
8399;SDS011;4237;47.030;15.396;2023-09-19T04:39:56;1.80;;;0.97;;
8399;SDS011;4237;47.030;15.396;2023-09-19T04:42:24;2.37;;;1.10;;
8399;SDS011;4237;47.030;15.396;2023-09-19T04:44:53;3.60;;;1.30;;
8399;SDS011;4237;47.030;15.396;2023-09-19T04:47:21;1.00;;;0.90;;
8399;SDS011;4237;47.030;15.396;2023-09-19T04:49:49;2.37;;;1.07;;
8399;SDS011;4237;47.030;15.396;2023-09-19T04:52:18;4.50;;;1.00;;
8399;SDS011;4237;47.030;15.396;2023-09-19T04:54:46;3.70;;;1.30;;
8399;SDS011;4237;47.030;15.396;2023-09-19T04:57:15;4.53;;;1.10;;
8399;SDS011;4237;47.030;15.396;2023-09-19T04:59:43;1.83;;;1.53;;
8399;SDS011;4237;47.030;15.396;2023-09-19T05:02:12;2.40;;;1.20;;
8399;SDS011;4237;47.030;15.396;2023-09-19T05:04:40;2.40;;;1.10;;
8399;SDS011;4237;47.030;15.396;2023-09-19T05:19:30;1.53;;;1.33;;
8399;SDS011;4237;47.030;15.396;2023-09-19T05:21:58;3.30;;;1.80;;
8399;SDS011;4237;47.030;15.396;2023-09-19T05:24:26;1.20;;;1.10;;
8399;SDS011;4237;47.030;15.396;2023-09-19T05:26:54;1.10;;;1.00;;
8399;SDS011;4237;47.030;15.396;2023-09-19T05:29:22;1.67;;;1.30;;
8399;SDS011;4237;47.030;15.396;2023-09-19T05:31:51;2.50;;;0.80;;
8399;SDS011;4237;47.030;15.396;2023-09-19T05:34:20;3.27;;;0.70;;
8399;SDS011;4237;47.030;15.396;2023-09-19T05:36:48;3.97;;;1.00;;
8399;SDS011;4237;47.030;15.396;2023-09-19T05:39:17;2.50;;;1.07;;
8399;SDS011;4237;47.030;15.396;2023-09-19T05:41:45;0.77;;;0.53;;
8399;SDS011;4237;47.030;15.396;2023-09-19T05:44:14;1.70;;;1.00;;
8399;SDS011;4237;47.030;15.396;2023-09-19T05:46:42;5.53;;;1.20;;
8399;SDS011;4237;47.030;15.396;2023-09-19T05:49:12;0.77;;;0.77;;
8399;SDS011;4237;47.030;15.396;2023-09-19T05:51:40;3.30;;;1.05;;
8399;SDS011;4237;47.030;15.396;2023-09-19T05:54:09;1.50;;;0.70;;
8399;SDS011;4237;47.030;15.396;2023-09-19T05:56:38;1.23;;;0.80;;
8399;SDS011;4237;47.030;15.396;2023-09-19T05:59:06;1.90;;;0.97;;
8399;SDS011;4237;47.030;15.396;2023-09-19T08:00:09;2.87;;;1.00;;
8399;SDS011;4237;47.030;15.396;2023-09-19T08:02:39;1.00;;;0.87;;
8399;SDS011;4237;47.030;15.396;2023-09-19T08:05:08;2.30;;;1.00;;
8399;SDS011;4237;47.030;15.396;2023-09-19T08:07:42;3.93;;;1.30;;
8399;SDS011;4237;47.030;15.396;2023-09-19T08:10:10;1.23;;;1.10;;
8399;SDS011;4237;47.030;15.396;2023-09-19T08:12:43;3.50;;;1.10;;
8399;SDS011;4237;47.030;15.396;2023-09-19T08:15:15;1.35;;;1.10;;
8399;SDS011;4237;47.030;15.396;2023-09-19T08:17:43;4.80;;;0.93;;
8399;SDS011;4237;47.030;15.396;2023-09-19T08:20:12;2.58;;;0.78;;
8399;SDS011;4237;47.030;15.396;2023-09-19T08:22:50;1.32;;;0.80;;
8399;SDS011;4237;47.030;15.396;2023-09-19T08:25:18;2.90;;;1.40;;
8399;SDS011;4237;47.030;15.396;2023-09-19T08:27:46;1.87;;;0.95;;
8399;SDS011;4237;47.030;15.396;2023-09-19T08:30:23;4.42;;;1.98;;
8399;SDS011;4237;47.030;15.396;2023-09-19T08:32:48;3.02;;;1.45;;
8399;SDS011;4237;47.030;15.396;2023-09-19T08:35:17;3.37;;;1.40;;
8399;SDS011;4237;47.030;15.396;2023-09-19T08:37:46;3.60;;;1.20;;
8399;SDS011;4237;47.030;15.396;2023-09-19T08:40:15;1.42;;;0.88;;
8399;SDS011;4237;47.030;15.396;2023-09-19T08:42:47;4.10;;;0.98;;
8399;SDS011;4237;47.030;15.396;2023-09-19T08:45:16;2.27;;;1.12;;
8399;SDS011;4237;47.030;15.396;2023-09-19T08:47:46;1.82;;;0.90;;
8399;SDS011;4237;47.030;15.396;2023-09-19T08:50:23;4.60;;;1.10;;
8399;SDS011;4237;47.030;15.396;2023-09-19T08:52:46;3.92;;;0.90;;
8399;SDS011;4237;47.030;15.396;2023-09-19T08:55:15;1.57;;;0.85;;
8399;SDS011;4237;47.030;15.396;2023-09-19T08:57:45;2.10;;;1.20;;
8399;SDS011;4237;47.030;15.396;2023-09-19T09:00:16;3.80;;;1.92;;
8399;SDS011;4237;47.030;15.396;2023-09-19T09:02:48;2.70;;;1.35;;
8399;SDS011;4237;47.030;15.396;2023-09-19T09:05:17;1.82;;;1.12;;
8399;SDS011;4237;47.030;15.396;2023-09-19T09:07:47;2.67;;;1.40;;
8399;SDS011;4237;47.030;15.396;2023-09-19T09:10:18;2.92;;;1.10;;
8399;SDS011;4237;47.030;15.396;2023-09-19T09:12:51;1.95;;;1.12;;
8399;SDS011;4237;47.030;15.396;2023-09-19T09:15:21;10.80;;;1.40;;
8399;SDS011;4237;47.030;15.396;2023-09-19T09:17:50;1.15;;;0.88;;
8399;SDS011;4237;47.030;15.396;2023-09-19T09:20:23;2.98;;;1.57;;
8399;SDS011;4237;47.030;15.396;2023-09-19T09:22:57;3.55;;;1.70;;
8399;SDS011;4237;47.030;15.396;2023-09-19T09:33:01;3.90;;;1.30;;
8399;SDS011;4237;47.030;15.396;2023-09-19T09:35:22;4.15;;;1.20;;
8399;SDS011;4237;47.030;15.396;2023-09-19T09:42:48;1.27;;;1.17;;
8399;SDS011;4237;47.030;15.396;2023-09-19T09:45:19;3.90;;;1.43;;
8399;SDS011;4237;47.030;15.396;2023-09-19T09:48:04;3.93;;;1.70;;
8399;SDS011;4237;47.030;15.396;2023-09-19T09:50:35;2.50;;;1.30;;
8399;SDS011;4237;47.030;15.396;2023-09-19T09:53:20;1.77;;;1.63;;
8399;SDS011;4237;47.030;15.396;2023-09-19T09:56:01;2.43;;;1.40;;
8399;SDS011;4237;47.030;15.396;2023-09-19T09:58:31;4.87;;;1.57;;
8399;SDS011;4237;47.030;15.396;2023-09-19T10:01:00;1.62;;;1.15;;
8399;SDS011;4237;47.030;15.396;2023-09-19T10:03:33;2.25;;;1.20;;
8399;SDS011;4237;47.030;15.396;2023-09-19T10:06:03;1.20;;;0.90;;
8399;SDS011;4237;47.030;15.396;2023-09-19T10:08:33;1.40;;;1.20;;
8399;SDS011;4237;47.030;15.396;2023-09-19T10:11:14;2.02;;;0.98;;
8399;SDS011;4237;47.030;15.396;2023-09-19T10:13:34;1.35;;;0.90;;
8399;SDS011;4237;47.030;15.396;2023-09-19T10:16:05;1.37;;;0.80;;
8399;SDS011;4237;47.030;15.396;2023-09-19T10:18:34;2.85;;;1.00;;
8399;SDS011;4237;47.030;15.396;2023-09-19T10:21:06;1.30;;;0.95;;
8399;SDS011;4237;47.030;15.396;2023-09-19T10:23:36;1.75;;;1.00;;
8399;SDS011;4237;47.030;15.396;2023-09-19T10:26:05;1.52;;;1.00;;
8399;SDS011;4237;47.030;15.396;2023-09-19T10:28:36;1.10;;;1.00;;
8399;SDS011;4237;47.030;15.396;2023-09-19T10:31:05;2.77;;;1.67;;
8399;SDS011;4237;47.030;15.396;2023-09-19T10:33:36;1.37;;;1.00;;
8399;SDS011;4237;47.030;15.396;2023-09-19T10:36:05;3.22;;;1.10;;
8399;SDS011;4237;47.030;15.396;2023-09-19T10:38:33;1.98;;;0.80;;
8399;SDS011;4237;47.030;15.396;2023-09-19T10:41:03;0.68;;;0.68;;
8399;SDS011;4237;47.030;15.396;2023-09-19T10:43:32;4.45;;;0.75;;
8399;SDS011;4237;47.030;15.396;2023-09-19T10:46:01;1.67;;;0.72;;
8399;SDS011;4237;47.030;15.396;2023-09-19T10:48:31;3.27;;;0.82;;
8399;SDS011;4237;47.030;15.396;2023-09-19T10:51:08;0.95;;;0.70;;
8399;SDS011;4237;47.030;15.396;2023-09-19T10:53:45;5.50;;;0.80;;
8399;SDS011;4237;47.030;15.396;2023-09-19T10:56:18;0.60;;;0.60;;
8399;SDS011;4237;47.030;15.396;2023-09-19T10:58:44;0.90;;;0.50;;
8399;SDS011;4237;47.030;15.396;2023-09-19T11:01:12;3.33;;;0.72;;
8399;SDS011;4237;47.030;15.396;2023-09-19T11:03:42;1.17;;;0.95;;
8399;SDS011;4237;47.030;15.396;2023-09-19T11:06:11;1.77;;;0.98;;
8399;SDS011;4237;47.030;15.396;2023-09-19T11:22:26;1.22;;;0.60;;
8399;SDS011;4237;47.030;15.396;2023-09-19T11:24:55;1.02;;;0.50;;
8399;SDS011;4237;47.030;15.396;2023-09-19T11:27:25;0.40;;;0.40;;
8399;SDS011;4237;47.030;15.396;2023-09-19T11:30:25;2.72;;;1.37;;
8399;SDS011;4237;47.030;15.396;2023-09-19T11:33:15;0.90;;;0.85;;
8399;SDS011;4237;47.030;15.396;2023-09-19T11:34:54;2.62;;;0.68;;
8399;SDS011;4237;47.030;15.396;2023-09-19T11:40:09;1.02;;;0.70;;
8399;SDS011;4237;47.030;15.396;2023-09-19T11:42:44;0.93;;;0.60;;
8399;SDS011;4237;47.030;15.396;2023-09-19T11:47:59;2.20;;;0.80;;
8399;SDS011;4237;47.030;15.396;2023-09-19T11:50:29;0.62;;;0.53;;
8399;SDS011;4237;47.030;15.396;2023-09-19T11:53:00;1.02;;;0.60;;
8399;SDS011;4237;47.030;15.396;2023-09-19T11:55:29;0.80;;;0.80;;
8399;SDS011;4237;47.030;15.396;2023-09-19T11:57:59;0.95;;;0.33;;
8399;SDS011;4237;47.030;15.396;2023-09-19T12:00:27;0.90;;;0.80;;
8399;SDS011;4237;47.030;15.396;2023-09-19T12:02:55;1.00;;;0.60;;
8399;SDS011;4237;47.030;15.396;2023-09-19T12:05:30;0.78;;;0.60;;
8399;SDS011;4237;47.030;15.396;2023-09-19T12:08:00;0.65;;;0.65;;
8399;SDS011;4237;47.030;15.396;2023-09-19T12:10:30;1.37;;;0.62;;
8399;SDS011;4237;47.030;15.396;2023-09-19T12:12:58;2.05;;;1.45;;
8399;SDS011;4237;47.030;15.396;2023-09-19T12:15:28;0.68;;;0.68;;
8399;SDS011;4237;47.030;15.396;2023-09-19T12:17:58;1.10;;;0.70;;
8399;SDS011;4237;47.030;15.396;2023-09-19T12:20:48;1.55;;;0.98;;
8399;SDS011;4237;47.030;15.396;2023-09-19T12:22:57;1.90;;;0.47;;
8399;SDS011;4237;47.030;15.396;2023-09-19T12:25:25;1.32;;;0.68;;
8399;SDS011;4237;47.030;15.396;2023-09-19T12:27:54;3.52;;;0.72;;
8399;SDS011;4237;47.030;15.396;2023-09-19T12:30:29;0.75;;;0.75;;
8399;SDS011;4237;47.030;15.396;2023-09-19T12:32:59;1.02;;;0.72;;
8399;SDS011;4237;47.030;15.396;2023-09-19T12:35:27;0.98;;;0.82;;
8399;SDS011;4237;47.030;15.396;2023-09-19T12:37:57;2.15;;;0.98;;
8399;SDS011;4237;47.030;15.396;2023-09-19T12:40:26;0.78;;;0.60;;
8399;SDS011;4237;47.030;15.396;2023-09-19T12:42:59;0.93;;;0.60;;
8399;SDS011;4237;47.030;15.396;2023-09-19T12:45:29;0.53;;;0.50;;
8399;SDS011;4237;47.030;15.396;2023-09-19T12:51:00;1.65;;;0.90;;
8399;SDS011;4237;47.030;15.396;2023-09-19T12:53:30;0.75;;;0.70;;
8399;SDS011;4237;47.030;15.396;2023-09-19T12:56:00;2.27;;;0.90;;
8399;SDS011;4237;47.030;15.396;2023-09-19T12:58:28;1.57;;;1.02;;
8399;SDS011;4237;47.030;15.396;2023-09-19T13:00:57;0.72;;;0.47;;
8399;SDS011;4237;47.030;15.396;2023-09-19T13:03:28;0.90;;;0.53;;
8399;SDS011;4237;47.030;15.396;2023-09-19T13:05:59;4.08;;;0.60;;
8399;SDS011;4237;47.030;15.396;2023-09-19T13:08:32;2.80;;;0.88;;
8399;SDS011;4237;47.030;15.396;2023-09-19T13:11:01;1.95;;;0.72;;
8399;SDS011;4237;47.030;15.396;2023-09-19T13:13:29;1.72;;;1.00;;
8399;SDS011;4237;47.030;15.396;2023-09-19T13:15:58;2.20;;;0.70;;
8399;SDS011;4237;47.030;15.396;2023-09-19T13:18:27;0.90;;;0.70;;
8399;SDS011;4237;47.030;15.396;2023-09-19T13:21:06;1.87;;;0.90;;
8399;SDS011;4237;47.030;15.396;2023-09-19T13:23:45;0.70;;;0.55;;
8399;SDS011;4237;47.030;15.396;2023-09-19T13:26:13;3.20;;;2.00;;
8399;SDS011;4237;47.030;15.396;2023-09-19T13:28:41;0.68;;;0.53;;
8399;SDS011;4237;47.030;15.396;2023-09-19T13:31:11;1.67;;;1.00;;
8399;SDS011;4237;47.030;15.396;2023-09-19T13:33:42;0.78;;;0.50;;
8399;SDS011;4237;47.030;15.396;2023-09-19T13:36:09;5.90;;;0.65;;
8399;SDS011;4237;47.030;15.396;2023-09-19T13:38:37;3.10;;;0.75;;
8399;SDS011;4237;47.030;15.396;2023-09-19T13:41:05;0.60;;;0.57;;
8399;SDS011;4237;47.030;15.396;2023-09-19T13:43:34;2.00;;;0.78;;
8399;SDS011;4237;47.030;15.396;2023-09-19T13:46:02;1.67;;;0.60;;
8399;SDS011;4237;47.030;15.396;2023-09-19T13:48:30;1.60;;;0.65;;
8399;SDS011;4237;47.030;15.396;2023-09-19T13:50:58;0.65;;;0.60;;
8399;SDS011;4237;47.030;15.396;2023-09-19T13:53:27;0.93;;;0.82;;
8399;SDS011;4237;47.030;15.396;2023-09-19T13:55:56;1.85;;;0.80;;
8399;SDS011;4237;47.030;15.396;2023-09-19T13:58:24;1.25;;;1.00;;
8399;SDS011;4237;47.030;15.396;2023-09-19T14:00:56;1.77;;;0.70;;
8399;SDS011;4237;47.030;15.396;2023-09-19T14:03:25;0.80;;;0.80;;
8399;SDS011;4237;47.030;15.396;2023-09-19T14:05:55;3.83;;;1.05;;
8399;SDS011;4237;47.030;15.396;2023-09-19T14:08:23;1.42;;;0.65;;
8399;SDS011;4237;47.030;15.396;2023-09-19T14:10:52;1.22;;;0.65;;
8399;SDS011;4237;47.030;15.396;2023-09-19T14:13:21;0.95;;;0.80;;
8399;SDS011;4237;47.030;15.396;2023-09-19T14:15:49;3.30;;;1.25;;
8399;SDS011;4237;47.030;15.396;2023-09-19T14:18:17;0.85;;;0.70;;
8399;SDS011;4237;47.030;15.396;2023-09-19T14:20:47;3.12;;;1.65;;
8399;SDS011;4237;47.030;15.396;2023-09-19T14:23:15;1.12;;;0.80;;
8399;SDS011;4237;47.030;15.396;2023-09-19T14:25:43;2.05;;;0.80;;
8399;SDS011;4237;47.030;15.396;2023-09-19T14:28:11;4.37;;;0.93;;
8399;SDS011;4237;47.030;15.396;2023-09-19T14:30:39;2.47;;;1.15;;
8399;SDS011;4237;47.030;15.396;2023-09-19T14:33:07;0.85;;;0.65;;
8399;SDS011;4237;47.030;15.396;2023-09-19T14:35:38;0.70;;;0.70;;
8399;SDS011;4237;47.030;15.396;2023-09-19T14:38:07;1.32;;;0.60;;
8399;SDS011;4237;47.030;15.396;2023-09-19T14:40:35;1.30;;;1.17;;
8399;SDS011;4237;47.030;15.396;2023-09-19T14:43:04;1.12;;;0.80;;
8399;SDS011;4237;47.030;15.396;2023-09-19T14:45:35;1.60;;;0.72;;
8399;SDS011;4237;47.030;15.396;2023-09-19T14:48:03;0.60;;;0.60;;
8399;SDS011;4237;47.030;15.396;2023-09-19T14:50:32;1.25;;;0.60;;
8399;SDS011;4237;47.030;15.396;2023-09-19T14:53:01;1.65;;;0.80;;
8399;SDS011;4237;47.030;15.396;2023-09-19T14:55:30;0.50;;;0.50;;
8399;SDS011;4237;47.030;15.396;2023-09-19T14:58:00;0.60;;;0.60;;
8399;SDS011;4237;47.030;15.396;2023-09-19T15:00:30;0.93;;;0.60;;
8399;SDS011;4237;47.030;15.396;2023-09-19T15:03:00;1.17;;;0.70;;
8399;SDS011;4237;47.030;15.396;2023-09-19T15:05:28;1.63;;;0.63;;
8399;SDS011;4237;47.030;15.396;2023-09-19T15:07:59;1.33;;;0.60;;
8399;SDS011;4237;47.030;15.396;2023-09-19T15:10:29;2.03;;;1.13;;
8399;SDS011;4237;47.030;15.396;2023-09-19T15:12:58;0.60;;;0.60;;
8399;SDS011;4237;47.030;15.396;2023-09-19T15:15:26;2.57;;;0.60;;
8399;SDS011;4237;47.030;15.396;2023-09-19T15:17:54;1.70;;;0.97;;
8399;SDS011;4237;47.030;15.396;2023-09-19T15:20:23;2.20;;;0.70;;
8399;SDS011;4237;47.030;15.396;2023-09-19T15:22:52;1.93;;;0.80;;
8399;SDS011;4237;47.030;15.396;2023-09-19T15:25:21;2.23;;;0.80;;
8399;SDS011;4237;47.030;15.396;2023-09-19T15:27:50;1.20;;;1.10;;
8399;SDS011;4237;47.030;15.396;2023-09-19T15:30:19;0.90;;;0.90;;
8399;SDS011;4237;47.030;15.396;2023-09-19T15:32:48;1.53;;;1.00;;
8399;SDS011;4237;47.030;15.396;2023-09-19T15:35:17;0.70;;;0.70;;
8399;SDS011;4237;47.030;15.396;2023-09-19T15:37:45;1.77;;;1.67;;
8399;SDS011;4237;47.030;15.396;2023-09-19T15:40:14;1.27;;;0.80;;
8399;SDS011;4237;47.030;15.396;2023-09-19T15:42:43;0.70;;;0.70;;
8399;SDS011;4237;47.030;15.396;2023-09-19T15:45:11;1.23;;;0.63;;
8399;SDS011;4237;47.030;15.396;2023-09-19T15:47:42;1.10;;;0.90;;
8399;SDS011;4237;47.030;15.396;2023-09-19T15:50:10;0.87;;;0.87;;
8399;SDS011;4237;47.030;15.396;2023-09-19T15:52:42;0.70;;;0.70;;
8399;SDS011;4237;47.030;15.396;2023-09-19T15:55:11;0.63;;;0.60;;
8399;SDS011;4237;47.030;15.396;2023-09-19T15:57:40;1.40;;;0.63;;
8399;SDS011;4237;47.030;15.396;2023-09-19T16:00:09;1.57;;;0.90;;
8399;SDS011;4237;47.030;15.396;2023-09-19T16:02:39;1.03;;;0.97;;
8399;SDS011;4237;47.030;15.396;2023-09-19T16:07:35;1.50;;;1.10;;
8399;SDS011;4237;47.030;15.396;2023-09-19T16:10:06;1.97;;;1.00;;
8399;SDS011;4237;47.030;15.396;2023-09-19T16:12:35;1.43;;;0.70;;
8399;SDS011;4237;47.030;15.396;2023-09-19T16:15:05;1.03;;;0.73;;
8399;SDS011;4237;47.030;15.396;2023-09-19T16:17:38;1.23;;;0.80;;
8399;SDS011;4237;47.030;15.396;2023-09-19T16:20:07;0.83;;;0.80;;
8399;SDS011;4237;47.030;15.396;2023-09-19T16:22:38;2.00;;;0.90;;
8399;SDS011;4237;47.030;15.396;2023-09-19T16:25:08;2.20;;;1.07;;
8399;SDS011;4237;47.030;15.396;2023-09-19T16:27:38;0.70;;;0.70;;
8399;SDS011;4237;47.030;15.396;2023-09-19T16:30:08;1.27;;;0.80;;
8399;SDS011;4237;47.030;15.396;2023-09-19T16:32:41;1.33;;;1.07;;
8399;SDS011;4237;47.030;15.396;2023-09-19T16:35:10;1.00;;;1.00;;
8399;SDS011;4237;47.030;15.396;2023-09-19T16:37:39;0.93;;;0.90;;
8399;SDS011;4237;47.030;15.396;2023-09-19T16:40:08;0.77;;;0.77;;
8399;SDS011;4237;47.030;15.396;2023-09-19T16:42:37;6.13;;;1.27;;
8399;SDS011;4237;47.030;15.396;2023-09-19T16:47:36;1.07;;;0.90;;
8399;SDS011;4237;47.030;15.396;2023-09-19T16:50:05;2.47;;;1.00;;
8399;SDS011;4237;47.030;15.396;2023-09-19T16:52:35;0.83;;;0.83;;
8399;SDS011;4237;47.030;15.396;2023-09-19T16:55:04;2.03;;;0.80;;
8399;SDS011;4237;47.030;15.396;2023-09-19T16:57:34;2.17;;;0.77;;
8399;SDS011;4237;47.030;15.396;2023-09-19T17:00:03;1.53;;;1.07;;
8399;SDS011;4237;47.030;15.396;2023-09-19T17:02:34;1.03;;;0.93;;
8399;SDS011;4237;47.030;15.396;2023-09-19T17:05:04;1.93;;;1.27;;
8399;SDS011;4237;47.030;15.396;2023-09-19T17:07:35;2.23;;;1.33;;
8399;SDS011;4237;47.030;15.396;2023-09-19T17:10:06;1.87;;;1.57;;
8399;SDS011;4237;47.030;15.396;2023-09-19T17:12:35;3.70;;;1.40;;
8399;SDS011;4237;47.030;15.396;2023-09-19T17:15:04;4.13;;;1.40;;
8399;SDS011;4237;47.030;15.396;2023-09-19T17:17:34;2.40;;;1.17;;
8399;SDS011;4237;47.030;15.396;2023-09-19T17:20:05;2.60;;;1.17;;
8399;SDS011;4237;47.030;15.396;2023-09-19T17:22:35;2.07;;;1.13;;
8399;SDS011;4237;47.030;15.396;2023-09-19T17:25:04;3.07;;;1.20;;
8399;SDS011;4237;47.030;15.396;2023-09-19T17:27:35;2.90;;;1.30;;
8399;SDS011;4237;47.030;15.396;2023-09-19T17:30:07;2.57;;;1.30;;
8399;SDS011;4237;47.030;15.396;2023-09-19T17:32:35;2.07;;;1.00;;
8399;SDS011;4237;47.030;15.396;2023-09-19T17:35:04;1.33;;;0.93;;
8399;SDS011;4237;47.030;15.396;2023-09-19T17:37:56;3.20;;;1.47;;
8399;SDS011;4237;47.030;15.396;2023-09-19T17:40:27;4.17;;;2.30;;
8399;SDS011;4237;47.030;15.396;2023-09-19T17:42:57;2.80;;;1.10;;
8399;SDS011;4237;47.030;15.396;2023-09-19T17:45:28;2.20;;;1.43;;
8399;SDS011;4237;47.030;15.396;2023-09-19T17:47:58;1.20;;;1.10;;
8399;SDS011;4237;47.030;15.396;2023-09-19T17:50:28;0.93;;;0.77;;
8399;SDS011;4237;47.030;15.396;2023-09-19T18:49:58;2.50;;;1.10;;
8399;SDS011;4237;47.030;15.396;2023-09-19T18:52:27;1.10;;;0.80;;
8399;SDS011;4237;47.030;15.396;2023-09-19T18:54:56;1.00;;;0.80;;
8399;SDS011;4237;47.030;15.396;2023-09-19T18:57:25;1.87;;;0.87;;
8399;SDS011;4237;47.030;15.396;2023-09-19T18:59:56;0.77;;;0.73;;
8399;SDS011;4237;47.030;15.396;2023-09-19T19:02:27;1.30;;;0.70;;
8399;SDS011;4237;47.030;15.396;2023-09-19T19:07:25;0.70;;;0.70;;
8399;SDS011;4237;47.030;15.396;2023-09-19T19:12:22;0.50;;;0.50;;
8399;SDS011;4237;47.030;15.396;2023-09-19T19:14:52;0.70;;;0.50;;
8399;SDS011;4237;47.030;15.396;2023-09-19T19:17:21;0.55;;;0.55;;